sensor_id;sensor_type;location;lat;lon;timestamp;P1;durP1;ratioP1;P2;durP2;ratioP2
41885;SDS011;27567;43.084;25.616;2023-02-11T00:02:33;61.42;;;19.23;;
41885;SDS011;27567;43.084;25.616;2023-02-11T00:05:17;49.70;;;18.52;;
41885;SDS011;27567;43.084;25.616;2023-02-11T00:08:01;52.70;;;18.90;;
41885;SDS011;27567;43.084;25.616;2023-02-11T00:10:45;51.00;;;18.65;;
41885;SDS011;27567;43.084;25.616;2023-02-11T00:13:29;51.83;;;16.92;;
41885;SDS011;27567;43.084;25.616;2023-02-11T00:16:14;50.40;;;17.35;;
41885;SDS011;27567;43.084;25.616;2023-02-11T00:18:59;48.05;;;18.65;;
41885;SDS011;27567;43.084;25.616;2023-02-11T00:21:43;46.20;;;17.60;;
41885;SDS011;27567;43.084;25.616;2023-02-11T00:24:27;46.30;;;18.15;;
41885;SDS011;27567;43.084;25.616;2023-02-11T00:27:12;45.88;;;16.63;;
41885;SDS011;27567;43.084;25.616;2023-02-11T00:29:56;46.55;;;14.75;;
41885;SDS011;27567;43.084;25.616;2023-02-11T00:32:40;34.95;;;15.27;;
41885;SDS011;27567;43.084;25.616;2023-02-11T00:35:25;48.97;;;14.25;;
41885;SDS011;27567;43.084;25.616;2023-02-11T00:38:09;42.40;;;15.90;;
41885;SDS011;27567;43.084;25.616;2023-02-11T00:40:53;46.50;;;17.35;;
41885;SDS011;27567;43.084;25.616;2023-02-11T00:43:37;39.65;;;16.23;;
41885;SDS011;27567;43.084;25.616;2023-02-11T00:46:21;49.20;;;16.00;;
41885;SDS011;27567;43.084;25.616;2023-02-11T00:49:05;40.63;;;15.52;;
41885;SDS011;27567;43.084;25.616;2023-02-11T00:51:49;46.35;;;15.93;;
41885;SDS011;27567;43.084;25.616;2023-02-11T00:54:33;44.08;;;15.90;;
41885;SDS011;27567;43.084;25.616;2023-02-11T00:57:17;44.03;;;17.25;;
41885;SDS011;27567;43.084;25.616;2023-02-11T01:00:01;46.13;;;16.25;;
41885;SDS011;27567;43.084;25.616;2023-02-11T01:02:45;45.28;;;17.00;;
41885;SDS011;27567;43.084;25.616;2023-02-11T01:05:29;44.63;;;16.83;;
41885;SDS011;27567;43.084;25.616;2023-02-11T01:08:13;47.53;;;16.92;;
41885;SDS011;27567;43.084;25.616;2023-02-11T01:10:58;44.58;;;16.52;;
41885;SDS011;27567;43.084;25.616;2023-02-11T01:13:43;52.85;;;17.77;;
41885;SDS011;27567;43.084;25.616;2023-02-11T01:16:27;52.60;;;19.27;;
41885;SDS011;27567;43.084;25.616;2023-02-11T01:19:11;53.90;;;19.58;;
41885;SDS011;27567;43.084;25.616;2023-02-11T01:21:54;53.83;;;18.58;;
41885;SDS011;27567;43.084;25.616;2023-02-11T01:24:38;47.83;;;18.27;;
41885;SDS011;27567;43.084;25.616;2023-02-11T01:27:22;48.33;;;17.00;;
41885;SDS011;27567;43.084;25.616;2023-02-11T01:30:07;54.75;;;21.10;;
41885;SDS011;27567;43.084;25.616;2023-02-11T01:32:51;55.70;;;20.15;;
41885;SDS011;27567;43.084;25.616;2023-02-11T01:35:36;52.90;;;18.75;;
41885;SDS011;27567;43.084;25.616;2023-02-11T01:38:21;39.97;;;15.85;;
41885;SDS011;27567;43.084;25.616;2023-02-11T01:41:07;47.05;;;17.52;;
41885;SDS011;27567;43.084;25.616;2023-02-11T01:43:52;49.38;;;16.25;;
41885;SDS011;27567;43.084;25.616;2023-02-11T01:46:36;48.83;;;18.60;;
41885;SDS011;27567;43.084;25.616;2023-02-11T01:49:21;54.45;;;18.92;;
41885;SDS011;27567;43.084;25.616;2023-02-11T01:52:08;47.17;;;17.33;;
41885;SDS011;27567;43.084;25.616;2023-02-11T01:54:54;44.88;;;16.88;;
41885;SDS011;27567;43.084;25.616;2023-02-11T01:57:59;39.63;;;16.15;;
41885;SDS011;27567;43.084;25.616;2023-02-11T02:00:45;41.65;;;14.88;;
41885;SDS011;27567;43.084;25.616;2023-02-11T02:03:29;36.50;;;13.55;;
41885;SDS011;27567;43.084;25.616;2023-02-11T02:06:29;41.83;;;14.70;;
41885;SDS011;27567;43.084;25.616;2023-02-11T02:09:16;36.17;;;14.25;;
41885;SDS011;27567;43.084;25.616;2023-02-11T02:12:03;37.33;;;14.93;;
41885;SDS011;27567;43.084;25.616;2023-02-11T02:14:46;45.10;;;14.65;;
41885;SDS011;27567;43.084;25.616;2023-02-11T02:17:34;30.00;;;13.07;;
41885;SDS011;27567;43.084;25.616;2023-02-11T02:23:23;31.35;;;11.90;;
41885;SDS011;27567;43.084;25.616;2023-02-11T02:41:07;54.08;;;16.23;;
41885;SDS011;27567;43.084;25.616;2023-02-11T02:43:51;56.23;;;16.60;;
41885;SDS011;27567;43.084;25.616;2023-02-11T02:46:36;50.15;;;15.10;;
41885;SDS011;27567;43.084;25.616;2023-02-11T02:49:20;44.75;;;14.57;;
41885;SDS011;27567;43.084;25.616;2023-02-11T02:52:38;78.35;;;22.60;;
41885;SDS011;27567;43.084;25.616;2023-02-11T03:04:21;41.38;;;15.20;;
41885;SDS011;27567;43.084;25.616;2023-02-11T03:09:51;58.25;;;19.45;;
41885;SDS011;27567;43.084;25.616;2023-02-11T03:12:37;42.72;;;16.40;;
41885;SDS011;27567;43.084;25.616;2023-02-11T03:15:22;50.15;;;18.00;;
41885;SDS011;27567;43.084;25.616;2023-02-11T03:18:08;73.13;;;23.35;;
41885;SDS011;27567;43.084;25.616;2023-02-11T03:20:54;36.85;;;16.23;;
41885;SDS011;27567;43.084;25.616;2023-02-11T03:23:40;34.65;;;13.10;;
41885;SDS011;27567;43.084;25.616;2023-02-11T03:26:29;48.67;;;17.77;;
41885;SDS011;27567;43.084;25.616;2023-02-11T03:29:16;50.38;;;16.27;;
41885;SDS011;27567;43.084;25.616;2023-02-11T03:37:39;104.10;;;31.85;;
41885;SDS011;27567;43.084;25.616;2023-02-11T03:40:25;87.13;;;26.92;;
41885;SDS011;27567;43.084;25.616;2023-02-11T03:43:11;68.88;;;21.80;;
41885;SDS011;27567;43.084;25.616;2023-02-11T03:45:56;104.43;;;28.33;;
41885;SDS011;27567;43.084;25.616;2023-02-11T03:48:43;53.13;;;18.42;;
41885;SDS011;27567;43.084;25.616;2023-02-11T03:51:28;43.45;;;16.48;;
41885;SDS011;27567;43.084;25.616;2023-02-11T03:54:14;61.17;;;20.25;;
41885;SDS011;27567;43.084;25.616;2023-02-11T03:56:59;50.13;;;18.80;;
41885;SDS011;27567;43.084;25.616;2023-02-11T03:59:55;53.58;;;20.02;;
41885;SDS011;27567;43.084;25.616;2023-02-11T04:02:39;63.58;;;21.88;;
41885;SDS011;27567;43.084;25.616;2023-02-11T04:05:23;72.15;;;23.08;;
41885;SDS011;27567;43.084;25.616;2023-02-11T04:08:07;55.17;;;20.40;;
41885;SDS011;27567;43.084;25.616;2023-02-11T04:10:51;54.65;;;17.55;;
41885;SDS011;27567;43.084;25.616;2023-02-11T04:13:35;48.42;;;18.27;;
41885;SDS011;27567;43.084;25.616;2023-02-11T04:16:19;47.35;;;20.08;;
41885;SDS011;27567;43.084;25.616;2023-02-11T04:19:03;50.40;;;19.67;;
41885;SDS011;27567;43.084;25.616;2023-02-11T04:21:47;57.90;;;20.77;;
41885;SDS011;27567;43.084;25.616;2023-02-11T04:24:31;66.82;;;22.67;;
41885;SDS011;27567;43.084;25.616;2023-02-11T04:27:15;56.60;;;20.67;;
41885;SDS011;27567;43.084;25.616;2023-02-11T04:29:59;53.05;;;18.08;;
41885;SDS011;27567;43.084;25.616;2023-02-11T04:32:43;43.28;;;16.42;;
41885;SDS011;27567;43.084;25.616;2023-02-11T04:35:27;42.15;;;16.75;;
41885;SDS011;27567;43.084;25.616;2023-02-11T04:38:10;48.20;;;17.80;;
41885;SDS011;27567;43.084;25.616;2023-02-11T04:40:54;46.95;;;16.58;;
41885;SDS011;27567;43.084;25.616;2023-02-11T04:43:40;44.00;;;16.65;;
41885;SDS011;27567;43.084;25.616;2023-02-11T04:46:24;56.88;;;17.33;;
41885;SDS011;27567;43.084;25.616;2023-02-11T04:49:08;62.08;;;17.13;;
41885;SDS011;27567;43.084;25.616;2023-02-11T04:51:53;59.30;;;20.20;;
41885;SDS011;27567;43.084;25.616;2023-02-11T04:54:38;43.88;;;18.90;;
41885;SDS011;27567;43.084;25.616;2023-02-11T04:57:21;62.85;;;18.63;;
41885;SDS011;27567;43.084;25.616;2023-02-11T05:00:06;50.88;;;18.42;;
41885;SDS011;27567;43.084;25.616;2023-02-11T05:02:50;58.80;;;22.17;;
41885;SDS011;27567;43.084;25.616;2023-02-11T05:05:37;58.67;;;21.52;;
41885;SDS011;27567;43.084;25.616;2023-02-11T05:08:20;53.35;;;18.55;;
41885;SDS011;27567;43.084;25.616;2023-02-11T05:11:04;49.28;;;19.55;;
41885;SDS011;27567;43.084;25.616;2023-02-11T05:13:48;38.78;;;14.63;;
41885;SDS011;27567;43.084;25.616;2023-02-11T05:16:32;33.53;;;11.77;;
41885;SDS011;27567;43.084;25.616;2023-02-11T05:19:16;39.67;;;14.18;;
41885;SDS011;27567;43.084;25.616;2023-02-11T05:22:00;25.98;;;10.93;;
41885;SDS011;27567;43.084;25.616;2023-02-11T05:24:44;32.70;;;12.23;;
41885;SDS011;27567;43.084;25.616;2023-02-11T05:27:28;35.58;;;11.45;;
41885;SDS011;27567;43.084;25.616;2023-02-11T05:30:12;34.92;;;10.93;;
41885;SDS011;27567;43.084;25.616;2023-02-11T05:32:55;34.90;;;12.70;;
41885;SDS011;27567;43.084;25.616;2023-02-11T05:35:39;31.85;;;11.75;;
41885;SDS011;27567;43.084;25.616;2023-02-11T05:38:23;40.42;;;13.13;;
41885;SDS011;27567;43.084;25.616;2023-02-11T05:41:08;37.00;;;13.57;;
41885;SDS011;27567;43.084;25.616;2023-02-11T05:43:52;33.78;;;12.48;;
41885;SDS011;27567;43.084;25.616;2023-02-11T05:46:36;26.73;;;9.82;;
41885;SDS011;27567;43.084;25.616;2023-02-11T05:49:23;33.38;;;10.60;;
41885;SDS011;27567;43.084;25.616;2023-02-11T05:52:10;23.45;;;10.02;;
41885;SDS011;27567;43.084;25.616;2023-02-11T05:54:54;27.88;;;10.70;;
41885;SDS011;27567;43.084;25.616;2023-02-11T05:57:38;28.02;;;11.63;;
41885;SDS011;27567;43.084;25.616;2023-02-11T06:00:22;28.73;;;10.43;;
41885;SDS011;27567;43.084;25.616;2023-02-11T06:03:06;29.70;;;10.15;;
41885;SDS011;27567;43.084;25.616;2023-02-11T06:05:50;29.63;;;10.90;;
41885;SDS011;27567;43.084;25.616;2023-02-11T06:08:34;27.92;;;10.20;;
41885;SDS011;27567;43.084;25.616;2023-02-11T06:11:18;28.77;;;11.43;;
41885;SDS011;27567;43.084;25.616;2023-02-11T06:14:02;32.65;;;11.40;;
41885;SDS011;27567;43.084;25.616;2023-02-11T06:16:46;31.27;;;11.23;;
41885;SDS011;27567;43.084;25.616;2023-02-11T06:19:30;42.20;;;10.68;;
41885;SDS011;27567;43.084;25.616;2023-02-11T06:22:14;28.88;;;11.13;;
41885;SDS011;27567;43.084;25.616;2023-02-11T06:24:58;31.10;;;10.18;;
41885;SDS011;27567;43.084;25.616;2023-02-11T06:27:42;22.17;;;9.15;;
41885;SDS011;27567;43.084;25.616;2023-02-11T06:30:27;25.13;;;10.27;;
41885;SDS011;27567;43.084;25.616;2023-02-11T06:33:11;31.55;;;13.15;;
41885;SDS011;27567;43.084;25.616;2023-02-11T06:35:54;34.90;;;12.60;;
41885;SDS011;27567;43.084;25.616;2023-02-11T06:38:38;29.77;;;12.45;;
41885;SDS011;27567;43.084;25.616;2023-02-11T06:41:23;35.80;;;14.07;;
41885;SDS011;27567;43.084;25.616;2023-02-11T06:44:07;32.33;;;11.00;;
41885;SDS011;27567;43.084;25.616;2023-02-11T06:46:51;28.55;;;11.05;;
41885;SDS011;27567;43.084;25.616;2023-02-11T06:49:35;35.45;;;13.80;;
41885;SDS011;27567;43.084;25.616;2023-02-11T06:52:19;41.53;;;16.33;;
41885;SDS011;27567;43.084;25.616;2023-02-11T06:55:03;42.72;;;16.17;;
41885;SDS011;27567;43.084;25.616;2023-02-11T06:57:48;67.28;;;21.60;;
41885;SDS011;27567;43.084;25.616;2023-02-11T07:00:31;83.15;;;25.40;;
41885;SDS011;27567;43.084;25.616;2023-02-11T07:03:15;55.85;;;19.08;;
41885;SDS011;27567;43.084;25.616;2023-02-11T07:05:59;79.40;;;26.35;;
41885;SDS011;27567;43.084;25.616;2023-02-11T07:08:44;48.20;;;17.15;;
41885;SDS011;27567;43.084;25.616;2023-02-11T07:11:29;52.60;;;18.30;;
41885;SDS011;27567;43.084;25.616;2023-02-11T07:14:13;63.60;;;21.77;;
41885;SDS011;27567;43.084;25.616;2023-02-11T07:16:57;48.55;;;16.33;;
41885;SDS011;27567;43.084;25.616;2023-02-11T07:19:41;54.08;;;19.50;;
41885;SDS011;27567;43.084;25.616;2023-02-11T07:22:25;52.58;;;20.83;;
41885;SDS011;27567;43.084;25.616;2023-02-11T07:25:09;52.42;;;19.27;;
41885;SDS011;27567;43.084;25.616;2023-02-11T07:27:53;55.35;;;23.50;;
41885;SDS011;27567;43.084;25.616;2023-02-11T07:30:37;65.80;;;24.02;;
41885;SDS011;27567;43.084;25.616;2023-02-11T07:33:21;85.60;;;30.60;;
41885;SDS011;27567;43.084;25.616;2023-02-11T07:36:05;78.50;;;27.60;;
41885;SDS011;27567;43.084;25.616;2023-02-11T07:38:49;82.80;;;29.92;;
41885;SDS011;27567;43.084;25.616;2023-02-11T07:41:33;83.97;;;31.23;;
41885;SDS011;27567;43.084;25.616;2023-02-11T07:44:17;78.72;;;29.90;;
41885;SDS011;27567;43.084;25.616;2023-02-11T07:47:02;124.30;;;42.22;;
41885;SDS011;27567;43.084;25.616;2023-02-11T07:49:46;67.60;;;27.65;;
41885;SDS011;27567;43.084;25.616;2023-02-11T07:52:30;76.65;;;30.85;;
41885;SDS011;27567;43.084;25.616;2023-02-11T07:55:14;78.50;;;30.80;;
41885;SDS011;27567;43.084;25.616;2023-02-11T07:57:58;75.88;;;29.85;;
41885;SDS011;27567;43.084;25.616;2023-02-11T08:00:42;68.00;;;27.40;;
41885;SDS011;27567;43.084;25.616;2023-02-11T08:03:26;62.20;;;25.85;;
41885;SDS011;27567;43.084;25.616;2023-02-11T08:06:11;65.55;;;26.67;;
41885;SDS011;27567;43.084;25.616;2023-02-11T08:08:55;65.45;;;26.40;;
41885;SDS011;27567;43.084;25.616;2023-02-11T08:11:39;63.90;;;26.10;;
41885;SDS011;27567;43.084;25.616;2023-02-11T08:14:23;75.90;;;31.33;;
41885;SDS011;27567;43.084;25.616;2023-02-11T08:17:08;81.25;;;32.72;;
41885;SDS011;27567;43.084;25.616;2023-02-11T08:19:52;79.70;;;32.28;;
41885;SDS011;27567;43.084;25.616;2023-02-11T08:22:35;85.20;;;32.25;;
41885;SDS011;27567;43.084;25.616;2023-02-11T08:25:19;119.00;;;39.72;;
41885;SDS011;27567;43.084;25.616;2023-02-11T08:28:03;94.60;;;31.02;;
41885;SDS011;27567;43.084;25.616;2023-02-11T08:30:48;59.67;;;25.02;;
41885;SDS011;27567;43.084;25.616;2023-02-11T08:33:32;81.78;;;28.73;;
41885;SDS011;27567;43.084;25.616;2023-02-11T08:36:17;78.70;;;29.77;;
41885;SDS011;27567;43.084;25.616;2023-02-11T08:39:03;59.22;;;23.27;;
41885;SDS011;27567;43.084;25.616;2023-02-11T08:41:49;72.80;;;29.10;;
41885;SDS011;27567;43.084;25.616;2023-02-11T08:44:34;66.30;;;29.13;;
41885;SDS011;27567;43.084;25.616;2023-02-11T08:47:18;74.20;;;30.60;;
41885;SDS011;27567;43.084;25.616;2023-02-11T08:50:02;69.45;;;26.35;;
41885;SDS011;27567;43.084;25.616;2023-02-11T08:52:46;52.40;;;21.73;;
41885;SDS011;27567;43.084;25.616;2023-02-11T08:55:30;54.58;;;22.17;;
41885;SDS011;27567;43.084;25.616;2023-02-11T08:58:14;57.00;;;23.60;;
41885;SDS011;27567;43.084;25.616;2023-02-11T09:00:58;46.78;;;21.80;;
41885;SDS011;27567;43.084;25.616;2023-02-11T09:03:42;43.47;;;19.73;;
41885;SDS011;27567;43.084;25.616;2023-02-11T09:06:26;52.33;;;21.20;;
41885;SDS011;27567;43.084;25.616;2023-02-11T09:09:11;49.15;;;21.35;;
41885;SDS011;27567;43.084;25.616;2023-02-11T09:11:56;40.72;;;16.92;;
41885;SDS011;27567;43.084;25.616;2023-02-11T09:14:40;53.22;;;22.98;;
41885;SDS011;27567;43.084;25.616;2023-02-11T09:17:24;40.13;;;18.50;;
41885;SDS011;27567;43.084;25.616;2023-02-11T09:20:08;40.70;;;17.20;;
41885;SDS011;27567;43.084;25.616;2023-02-11T09:22:52;37.83;;;16.92;;
41885;SDS011;27567;43.084;25.616;2023-02-11T09:25:40;128.13;;;46.05;;
41885;SDS011;27567;43.084;25.616;2023-02-11T09:28:23;42.42;;;18.00;;
41885;SDS011;27567;43.084;25.616;2023-02-11T09:31:08;42.40;;;16.48;;
41885;SDS011;27567;43.084;25.616;2023-02-11T09:33:54;35.17;;;14.63;;
41885;SDS011;27567;43.084;25.616;2023-02-11T09:36:38;29.25;;;11.15;;
41885;SDS011;27567;43.084;25.616;2023-02-11T09:39:23;40.03;;;17.02;;
41885;SDS011;27567;43.084;25.616;2023-02-11T09:42:17;64.38;;;24.52;;
41885;SDS011;27567;43.084;25.616;2023-02-11T09:45:04;27.10;;;11.88;;
41885;SDS011;27567;43.084;25.616;2023-02-11T09:47:55;23.92;;;11.02;;
41885;SDS011;27567;43.084;25.616;2023-02-11T09:50:51;42.78;;;16.65;;
41885;SDS011;27567;43.084;25.616;2023-02-11T09:53:39;24.58;;;9.98;;
41885;SDS011;27567;43.084;25.616;2023-02-11T09:56:24;23.13;;;9.15;;
41885;SDS011;27567;43.084;25.616;2023-02-11T09:59:10;21.65;;;9.20;;
41885;SDS011;27567;43.084;25.616;2023-02-11T10:02:01;19.08;;;7.70;;
41885;SDS011;27567;43.084;25.616;2023-02-11T10:08:04;18.95;;;8.27;;
41885;SDS011;27567;43.084;25.616;2023-02-11T10:10:54;20.77;;;8.50;;
41885;SDS011;27567;43.084;25.616;2023-02-11T10:13:47;28.00;;;8.52;;
41885;SDS011;27567;43.084;25.616;2023-02-11T10:16:40;21.00;;;8.32;;
41885;SDS011;27567;43.084;25.616;2023-02-11T10:22:18;25.23;;;8.75;;
41885;SDS011;27567;43.084;25.616;2023-02-11T10:25:07;24.52;;;10.85;;
41885;SDS011;27567;43.084;25.616;2023-02-11T10:27:56;23.63;;;11.65;;
41885;SDS011;27567;43.084;25.616;2023-02-11T10:36:15;18.42;;;8.93;;
41885;SDS011;27567;43.084;25.616;2023-02-11T10:41:56;18.25;;;8.27;;
41885;SDS011;27567;43.084;25.616;2023-02-11T10:44:56;14.55;;;7.30;;
41885;SDS011;27567;43.084;25.616;2023-02-11T10:47:40;16.42;;;8.07;;
41885;SDS011;27567;43.084;25.616;2023-02-11T10:50:29;17.92;;;7.57;;
41885;SDS011;27567;43.084;25.616;2023-02-11T10:53:18;16.77;;;7.82;;
41885;SDS011;27567;43.084;25.616;2023-02-11T10:56:07;13.90;;;6.97;;
41885;SDS011;27567;43.084;25.616;2023-02-11T10:58:59;13.25;;;7.18;;
41885;SDS011;27567;43.084;25.616;2023-02-11T11:01:53;12.90;;;6.57;;
41885;SDS011;27567;43.084;25.616;2023-02-11T11:04:39;15.60;;;6.88;;
41885;SDS011;27567;43.084;25.616;2023-02-11T11:07:28;14.00;;;6.88;;
41885;SDS011;27567;43.084;25.616;2023-02-11T11:10:32;14.15;;;6.95;;
41885;SDS011;27567;43.084;25.616;2023-02-11T11:16:16;15.20;;;6.93;;
41885;SDS011;27567;43.084;25.616;2023-02-11T11:21:54;15.13;;;6.65;;
41885;SDS011;27567;43.084;25.616;2023-02-11T11:24:42;10.02;;;5.85;;
41885;SDS011;27567;43.084;25.616;2023-02-11T11:27:26;11.95;;;6.43;;
41885;SDS011;27567;43.084;25.616;2023-02-11T11:30:16;16.65;;;6.65;;
41885;SDS011;27567;43.084;25.616;2023-02-11T11:33:00;12.00;;;6.60;;
41885;SDS011;27567;43.084;25.616;2023-02-11T11:35:52;12.25;;;6.47;;
41885;SDS011;27567;43.084;25.616;2023-02-11T11:39:38;11.75;;;6.20;;
41885;SDS011;27567;43.084;25.616;2023-02-11T11:44:36;10.88;;;5.85;;
41885;SDS011;27567;43.084;25.616;2023-02-11T11:47:30;16.90;;;6.95;;
41885;SDS011;27567;43.084;25.616;2023-02-11T11:52:59;15.30;;;6.65;;
41885;SDS011;27567;43.084;25.616;2023-02-11T11:55:45;13.60;;;6.63;;
41885;SDS011;27567;43.084;25.616;2023-02-11T11:58:31;13.05;;;6.63;;
41885;SDS011;27567;43.084;25.616;2023-02-11T12:33:57;26.15;;;14.02;;
41885;SDS011;27567;43.084;25.616;2023-02-11T12:36:49;16.58;;;10.05;;
41885;SDS011;27567;43.084;25.616;2023-02-11T12:59:52;14.95;;;8.30;;
41885;SDS011;27567;43.084;25.616;2023-02-11T13:05:33;18.27;;;9.77;;
41885;SDS011;27567;43.084;25.616;2023-02-11T13:11:10;14.35;;;8.60;;
41885;SDS011;27567;43.084;25.616;2023-02-11T13:14:14;15.40;;;8.68;;
41885;SDS011;27567;43.084;25.616;2023-02-11T13:17:00;17.73;;;8.07;;
41885;SDS011;27567;43.084;25.616;2023-02-11T13:19:49;11.52;;;8.00;;
41885;SDS011;27567;43.084;25.616;2023-02-11T13:22:37;12.18;;;7.65;;
41885;SDS011;27567;43.084;25.616;2023-02-11T13:25:33;11.88;;;6.85;;
41885;SDS011;27567;43.084;25.616;2023-02-11T13:28:34;13.57;;;8.30;;
41885;SDS011;27567;43.084;25.616;2023-02-11T13:31:23;12.10;;;8.23;;
41885;SDS011;27567;43.084;25.616;2023-02-11T13:37:22;10.70;;;7.25;;
41885;SDS011;27567;43.084;25.616;2023-02-11T13:40:22;12.18;;;7.75;;
41885;SDS011;27567;43.084;25.616;2023-02-11T13:43:18;12.73;;;8.07;;
41885;SDS011;27567;43.084;25.616;2023-02-11T13:48:48;13.88;;;7.15;;
41885;SDS011;27567;43.084;25.616;2023-02-11T13:51:33;14.30;;;7.18;;
41885;SDS011;27567;43.084;25.616;2023-02-11T13:54:20;10.88;;;5.88;;
41885;SDS011;27567;43.084;25.616;2023-02-11T14:12:20;11.13;;;5.40;;
41885;SDS011;27567;43.084;25.616;2023-02-11T14:17:48;11.55;;;4.63;;
41885;SDS011;27567;43.084;25.616;2023-02-11T14:20:36;13.40;;;5.15;;
41885;SDS011;27567;43.084;25.616;2023-02-11T14:23:23;13.10;;;5.00;;
41885;SDS011;27567;43.084;25.616;2023-02-11T14:29:14;11.35;;;4.80;;
41885;SDS011;27567;43.084;25.616;2023-02-11T14:43:24;11.75;;;4.53;;
41885;SDS011;27567;43.084;25.616;2023-02-11T14:46:09;10.13;;;5.40;;
41885;SDS011;27567;43.084;25.616;2023-02-11T14:48:53;14.55;;;5.22;;
41885;SDS011;27567;43.084;25.616;2023-02-11T14:51:39;17.33;;;5.65;;
41885;SDS011;27567;43.084;25.616;2023-02-11T14:54:24;11.68;;;4.68;;
41885;SDS011;27567;43.084;25.616;2023-02-11T14:57:12;11.13;;;5.30;;
41885;SDS011;27567;43.084;25.616;2023-02-11T14:59:58;17.08;;;7.93;;
41885;SDS011;27567;43.084;25.616;2023-02-11T15:02:44;13.68;;;4.65;;
41885;SDS011;27567;43.084;25.616;2023-02-11T15:05:28;12.45;;;5.10;;
41885;SDS011;27567;43.084;25.616;2023-02-11T15:08:12;19.20;;;6.35;;
41885;SDS011;27567;43.084;25.616;2023-02-11T15:10:57;14.85;;;5.32;;
41885;SDS011;27567;43.084;25.616;2023-02-11T15:13:41;17.75;;;5.60;;
41885;SDS011;27567;43.084;25.616;2023-02-11T15:16:32;17.58;;;5.40;;
41885;SDS011;27567;43.084;25.616;2023-02-11T15:19:21;16.08;;;4.72;;
41885;SDS011;27567;43.084;25.616;2023-02-11T15:22:07;17.00;;;6.30;;
41885;SDS011;27567;43.084;25.616;2023-02-11T15:27:46;11.43;;;5.00;;
41885;SDS011;27567;43.084;25.616;2023-02-11T15:30:31;19.00;;;6.22;;
41885;SDS011;27567;43.084;25.616;2023-02-11T15:33:20;12.70;;;5.30;;
41885;SDS011;27567;43.084;25.616;2023-02-11T15:36:04;12.32;;;5.05;;
41885;SDS011;27567;43.084;25.616;2023-02-11T15:45:25;15.05;;;5.68;;
41885;SDS011;27567;43.084;25.616;2023-02-11T15:48:13;11.63;;;5.50;;
41885;SDS011;27567;43.084;25.616;2023-02-11T15:51:20;12.02;;;4.90;;
41885;SDS011;27567;43.084;25.616;2023-02-11T15:54:14;14.68;;;6.35;;
41885;SDS011;27567;43.084;25.616;2023-02-11T15:57:02;16.02;;;5.57;;
41885;SDS011;27567;43.084;25.616;2023-02-11T15:59:48;13.98;;;5.70;;
41885;SDS011;27567;43.084;25.616;2023-02-11T16:02:33;15.40;;;5.43;;
41885;SDS011;27567;43.084;25.616;2023-02-11T16:05:28;18.27;;;6.38;;
41885;SDS011;27567;43.084;25.616;2023-02-11T16:08:31;13.27;;;5.47;;
41885;SDS011;27567;43.084;25.616;2023-02-11T16:11:23;15.40;;;6.03;;
41885;SDS011;27567;43.084;25.616;2023-02-11T16:20:00;17.80;;;7.68;;
41885;SDS011;27567;43.084;25.616;2023-02-11T16:22:44;21.20;;;8.65;;
41885;SDS011;27567;43.084;25.616;2023-02-11T16:25:29;15.48;;;6.40;;
41885;SDS011;27567;43.084;25.616;2023-02-11T16:28:13;14.13;;;5.25;;
41885;SDS011;27567;43.084;25.616;2023-02-11T16:30:58;18.05;;;7.57;;
41885;SDS011;27567;43.084;25.616;2023-02-11T16:33:42;13.25;;;5.18;;
41885;SDS011;27567;43.084;25.616;2023-02-11T16:36:26;20.38;;;9.45;;
41885;SDS011;27567;43.084;25.616;2023-02-11T16:39:10;14.93;;;5.18;;
41885;SDS011;27567;43.084;25.616;2023-02-11T16:41:54;16.92;;;6.55;;
41885;SDS011;27567;43.084;25.616;2023-02-11T16:44:38;17.77;;;6.65;;
41885;SDS011;27567;43.084;25.616;2023-02-11T16:47:23;38.38;;;14.15;;
41885;SDS011;27567;43.084;25.616;2023-02-11T16:50:08;20.70;;;8.07;;
41885;SDS011;27567;43.084;25.616;2023-02-11T16:52:52;18.58;;;7.45;;
41885;SDS011;27567;43.084;25.616;2023-02-11T16:55:36;19.25;;;7.00;;
41885;SDS011;27567;43.084;25.616;2023-02-11T16:58:20;14.18;;;6.90;;
41885;SDS011;27567;43.084;25.616;2023-02-11T17:01:05;15.40;;;7.95;;
41885;SDS011;27567;43.084;25.616;2023-02-11T17:03:49;23.38;;;8.55;;
41885;SDS011;27567;43.084;25.616;2023-02-11T17:06:32;30.38;;;10.30;;
41885;SDS011;27567;43.084;25.616;2023-02-11T17:09:18;16.90;;;7.85;;
41885;SDS011;27567;43.084;25.616;2023-02-11T17:12:02;25.92;;;10.45;;
41885;SDS011;27567;43.084;25.616;2023-02-11T17:14:46;20.20;;;9.43;;
41885;SDS011;27567;43.084;25.616;2023-02-11T17:17:30;20.42;;;9.32;;
41885;SDS011;27567;43.084;25.616;2023-02-11T17:20:14;19.85;;;8.13;;
41885;SDS011;27567;43.084;25.616;2023-02-11T17:22:58;23.20;;;8.13;;
41885;SDS011;27567;43.084;25.616;2023-02-11T17:25:42;21.35;;;8.35;;
41885;SDS011;27567;43.084;25.616;2023-02-11T17:28:26;88.97;;;32.63;;
41885;SDS011;27567;43.084;25.616;2023-02-11T17:31:10;102.25;;;34.88;;
41885;SDS011;27567;43.084;25.616;2023-02-11T17:33:54;72.75;;;27.23;;
41885;SDS011;27567;43.084;25.616;2023-02-11T17:36:38;79.65;;;25.35;;
41885;SDS011;27567;43.084;25.616;2023-02-11T17:39:24;72.60;;;25.95;;
41885;SDS011;27567;43.084;25.616;2023-02-11T17:42:08;80.15;;;27.10;;
41885;SDS011;27567;43.084;25.616;2023-02-11T17:44:54;74.40;;;28.08;;
41885;SDS011;27567;43.084;25.616;2023-02-11T17:47:38;70.15;;;27.33;;
41885;SDS011;27567;43.084;25.616;2023-02-11T17:50:22;74.43;;;25.65;;
41885;SDS011;27567;43.084;25.616;2023-02-11T17:53:05;60.95;;;20.88;;
41885;SDS011;27567;43.084;25.616;2023-02-11T17:55:49;41.58;;;18.77;;
41885;SDS011;27567;43.084;25.616;2023-02-11T17:58:33;26.98;;;11.98;;
41885;SDS011;27567;43.084;25.616;2023-02-11T18:01:18;24.67;;;9.80;;
41885;SDS011;27567;43.084;25.616;2023-02-11T18:04:02;27.77;;;10.07;;
41885;SDS011;27567;43.084;25.616;2023-02-11T18:06:47;17.55;;;7.25;;
41885;SDS011;27567;43.084;25.616;2023-02-11T18:09:34;28.30;;;11.45;;
41885;SDS011;27567;43.084;25.616;2023-02-11T18:12:18;33.58;;;11.70;;
41885;SDS011;27567;43.084;25.616;2023-02-11T18:15:07;33.90;;;12.57;;
41885;SDS011;27567;43.084;25.616;2023-02-11T18:17:52;36.78;;;15.32;;
41885;SDS011;27567;43.084;25.616;2023-02-11T18:20:36;63.38;;;24.67;;
41885;SDS011;27567;43.084;25.616;2023-02-11T18:23:20;82.20;;;29.95;;
41885;SDS011;27567;43.084;25.616;2023-02-11T18:26:07;83.45;;;31.95;;
41885;SDS011;27567;43.084;25.616;2023-02-11T18:28:52;74.18;;;28.83;;
41885;SDS011;27567;43.084;25.616;2023-02-11T18:31:36;66.03;;;27.33;;
41885;SDS011;27567;43.084;25.616;2023-02-11T18:34:20;57.03;;;21.60;;
41885;SDS011;27567;43.084;25.616;2023-02-11T18:37:04;66.18;;;22.80;;
41885;SDS011;27567;43.084;25.616;2023-02-11T18:39:48;37.15;;;14.43;;
41885;SDS011;27567;43.084;25.616;2023-02-11T18:42:32;27.98;;;13.15;;
41885;SDS011;27567;43.084;25.616;2023-02-11T18:45:16;32.75;;;13.35;;
41885;SDS011;27567;43.084;25.616;2023-02-11T18:48:00;38.53;;;14.82;;
41885;SDS011;27567;43.084;25.616;2023-02-11T18:50:46;34.33;;;14.93;;
41885;SDS011;27567;43.084;25.616;2023-02-11T18:53:30;34.65;;;14.40;;
41885;SDS011;27567;43.084;25.616;2023-02-11T18:56:16;42.65;;;18.20;;